Time;durP1;ratioP1;P1;durP2;ratioP2;P2;SDS_P1;SDS_P2;PMS_P1;PMS_P2;Temp;Humidity;BMP_temperature;BMP_pressure;BME280_temperature;BME280_humidity;BME280_pressure;Samples;Min_cycle;Max_cycle;Signal;HPM_P1;HPM_P2
2023/10/04 00:00:45;;;;;;;16.88;2.90;;;19.10;99.90;;;;;;5092510;28;20029;-74
2023/10/04 00:03:12;;;;;;;10.93;2.13;;;19.30;99.90;;;;;;5092798;28;20475;-74
2023/10/04 00:05:38;;;;;;;12.02;1.88;;;;;;;;;;5075688;28;20058;-74
2023/10/04 00:08:04;;;;;;;10.32;2.58;;;19.00;99.90;;;;;;5092621;28;20039;-74
2023/10/04 00:10:30;;;;;;;11.10;2.60;;;19.30;99.90;;;;;;5092426;28;20672;-74
2023/10/04 00:12:55;;;;;;;8.90;2.45;;;19.00;99.90;;;;;;5075735;28;20098;-74
2023/10/04 00:15:22;;;;;;;10.73;2.17;;;19.40;99.90;;;;;;5092491;28;20105;-74
2023/10/04 00:17:48;;;;;;;15.55;2.75;;;;;;;;;;5075738;28;20043;-74
2023/10/04 00:20:17;;;;;;;11.68;2.60;;;19.00;99.90;;;;;;5091934;28;20036;-75
2023/10/04 00:22:46;;;;;;;16.52;3.13;;;19.10;99.90;;;;;;5092526;28;20383;-74
2023/10/04 00:25:20;;;;;;;9.65;2.30;;;19.30;99.90;;;;;;5093892;28;20039;-74
2023/10/04 00:27:47;;;;;;;11.25;2.20;;;;;;;;;;5092413;28;20047;-74
2023/10/04 00:30:17;;;;;;;12.40;2.42;;;19.20;99.90;;;;;;5092059;28;20040;-74
2023/10/04 00:32:46;;;;;;;10.27;2.67;;;18.80;99.90;;;;;;5075497;28;20078;-74
2023/10/04 00:35:17;;;;;;;14.32;2.88;;;19.00;99.90;;;;;;5092126;28;20064;-74
2023/10/04 00:37:44;;;;;;;8.82;2.22;;;19.00;99.90;;;;;;5092117;28;20036;-74
2023/10/04 00:40:18;;;;;;;15.35;2.25;;;18.90;99.90;;;;;;5075235;28;20044;-74
2023/10/04 00:42:47;;;;;;;18.48;3.60;;;20.00;99.90;;;;;;5092053;28;20087;-74
2023/10/04 00:45:13;;;;;;;9.95;2.33;;;19.00;99.90;;;;;;5091908;28;20043;-74
2023/10/04 00:47:47;;;;;;;12.05;2.47;;;19.30;99.90;;;;;;5091764;28;20515;-74
2023/10/04 00:50:17;;;;;;;15.32;2.63;;;19.40;99.90;;;;;;5092115;28;20032;-74
2023/10/04 00:52:59;;;;;;;9.82;2.65;;;18.90;99.90;;;;;;5091977;28;20043;-74
2023/10/04 00:55:26;;;;;;;11.38;2.38;;;18.80;99.90;;;;;;5075118;28;20047;-74
2023/10/04 00:57:54;;;;;;;13.20;2.22;;;;;;;;;;5091479;28;20046;-74
2023/10/04 01:00:20;;;;;;;13.93;2.28;;;19.10;99.90;;;;;;5091425;28;20094;-74
2023/10/04 01:02:46;;;;;;;17.58;3.15;;;19.30;99.90;;;;;;5074678;28;20040;-74
2023/10/04 01:05:15;;;;;;;15.95;2.10;;;19.00;99.90;;;;;;5091483;28;20507;-74
2023/10/04 01:07:41;;;;;;;15.70;3.08;;;18.90;99.90;;;;;;5091462;28;20503;-74
2023/10/04 01:10:14;;;;;;;13.27;2.70;;;18.90;99.90;;;;;;5091667;28;20504;-74
2023/10/04 01:12:40;;;;;;;12.63;2.20;;;;;;;;;;5074784;28;20052;-74
2023/10/04 01:15:25;;;;;;;17.25;2.50;;;18.80;99.90;;;;;;5074429;28;20040;-74
2023/10/04 01:17:56;;;;;;;11.25;2.45;;;19.10;99.90;;;;;;5091246;28;20043;-74
2023/10/04 01:20:25;;;;;;;12.77;2.47;;;;;;;;;;5074394;28;20403;-74
2023/10/04 01:22:51;;;;;;;15.40;3.92;;;19.10;99.90;;;;;;5091108;28;20043;-74
2023/10/04 01:25:18;;;;;;;10.48;2.88;;;19.00;99.90;;;;;;5091314;28;20075;-74
2023/10/04 01:27:45;;;;;;;10.95;2.75;;;19.20;99.90;;;;;;5091110;28;20047;-74
2023/10/04 01:30:11;;;;;;;13.63;2.67;;;19.30;99.90;;;;;;5090828;28;20035;-74
2023/10/04 01:32:37;;;;;;;9.15;2.40;;;19.30;99.90;;;;;;5090400;28;20040;-74
2023/10/04 01:35:05;;;;;;;9.00;2.20;;;19.30;99.90;;;;;;5091018;28;20035;-74
2023/10/04 01:37:33;;;;;;;14.68;2.80;;;18.90;99.90;;;;;;5090946;28;20056;-74
2023/10/04 01:39:58;;;;;;;11.10;2.35;;;19.40;99.90;;;;;;5090760;28;20094;-74
2023/10/04 01:42:25;;;;;;;13.55;2.95;;;;;;;;;;5074129;28;20520;-74
2023/10/04 01:44:54;;;;;;;13.77;2.90;;;19.40;99.90;;;;;;5090865;28;20105;-74
2023/10/04 01:47:20;;;;;;;11.20;2.10;;;19.10;99.90;;;;;;5090880;28;20044;-74
2023/10/04 01:49:47;;;;;;;10.00;2.47;;;19.30;99.90;;;;;;5090775;28;20506;-74
2023/10/04 01:52:13;;;;;;;9.82;2.63;;;19.30;99.90;;;;;;5090654;28;20039;-74
2023/10/04 01:54:39;;;;;;;18.67;2.47;;;;;;;;;;5090591;28;20123;-74
2023/10/04 01:57:05;;;;;;;7.93;2.75;;;;;;;;;;5073796;28;20047;-74
2023/10/04 01:59:31;;;;;;;9.75;2.50;;;19.50;99.90;;;;;;5090314;28;20032;-74
2023/10/04 02:01:58;;;;;;;13.23;2.15;;;19.10;99.90;;;;;;5090893;28;20040;-74
2023/10/04 02:04:24;;;;;;;12.93;2.50;;;19.50;99.90;;;;;;5073652;28;20142;-74
2023/10/04 02:06:50;;;;;;;9.70;2.47;;;;;;;;;;5090597;28;20163;-74
2023/10/04 02:09:20;;;;;;;12.63;2.50;;;;;;;;;;5073593;28;20044;-74
2023/10/04 02:11:46;;;;;;;12.30;3.10;;;;;;;;;;5090103;28;20064;-74
2023/10/04 02:14:12;;;;;;;13.63;2.60;;;;;;;;;;5073939;28;20039;-74
2023/10/04 02:16:38;;;;;;;12.82;2.15;;;;;;;;;;5090405;28;20144;-74
2023/10/04 02:19:04;;;;;;;12.15;3.10;;;;;;;;;;5090105;28;20032;-74
2023/10/04 02:21:30;;;;;;;14.85;3.00;;;;;;;;;;5073638;28;20396;-74
2023/10/04 02:23:57;;;;;;;13.05;3.55;;;;;;;;;;5090429;28;20518;-74
2023/10/04 02:26:23;;;;;;;11.27;2.10;;;;;;;;;;5090401;28;20050;-74
2023/10/04 02:28:52;;;;;;;13.40;3.05;;;19.30;99.90;;;;;;5090113;28;20044;-74
2023/10/04 02:31:22;;;;;;;20.35;3.13;;;18.60;99.90;;;;;;5089990;28;20032;-74
2023/10/04 02:33:50;;;;;;;11.55;2.28;;;19.10;99.90;;;;;;5090297;28;20054;-74
2023/10/04 02:36:16;;;;;;;13.30;2.50;;;19.00;99.90;;;;;;5089592;28;20040;-74
2023/10/04 02:38:41;;;;;;;14.77;2.83;;;18.90;99.90;;;;;;5090098;28;20032;-74
2023/10/04 02:41:10;;;;;;;14.32;2.72;;;;;;;;;;5089948;28;20071;-74
2023/10/04 02:43:37;;;;;;;14.73;2.70;;;19.10;99.90;;;;;;5090966;28;20499;-74
2023/10/04 02:46:03;;;;;;;15.57;2.92;;;;;;;;;;5077134;28;20032;-74
2023/10/04 02:48:32;;;;;;;10.88;2.17;;;;;;;;;;5094423;28;20491;-74
2023/10/04 02:50:58;;;;;;;11.02;2.55;;;;;;;;;;5093886;28;20055;-74
2023/10/04 02:53:27;;;;;;;18.70;3.15;;;;;;;;;;5094204;28;20040;-74
2023/10/04 02:55:57;;;;;;;10.70;2.95;;;19.20;99.90;;;;;;5076874;28;20101;-74
2023/10/04 02:58:23;;;;;;;8.93;3.17;;;18.70;99.90;;;;;;5077319;28;20036;-74
2023/10/04 03:00:50;;;;;;;10.07;2.30;;;18.60;99.90;;;;;;5093494;28;20039;-74
2023/10/04 03:03:22;;;;;;;13.63;2.40;;;18.80;99.90;;;;;;5070825;28;20456;-74
2023/10/04 03:05:51;;;;;;;14.15;3.15;;;19.10;99.90;;;;;;5073753;28;20041;-74
2023/10/04 03:08:17;;;;;;;14.20;2.92;;;18.70;99.90;;;;;;5072954;28;20077;-74
2023/10/04 03:10:45;;;;;;;13.77;2.60;;;18.80;99.90;;;;;;5073118;28;20042;-74
2023/10/04 03:13:20;;;;;;;9.60;2.90;;;;;;;;;;5057325;28;20051;-74
2023/10/04 03:15:47;;;;;;;9.65;2.72;;;18.70;99.90;;;;;;5056681;28;20047;-74
2023/10/04 03:18:13;;;;;;;14.23;2.17;;;;;;;;;;5073175;28;20040;-74
2023/10/04 03:20:45;;;;;;;15.65;3.10;;;19.00;99.90;;;;;;5073086;28;20094;-74
2023/10/04 03:23:11;;;;;;;16.35;2.80;;;;;;;;;;5073566;28;20446;-73
2023/10/04 03:25:37;;;;;;;11.38;2.67;;;;;;;;;;5072981;28;20040;-74
2023/10/04 03:28:05;;;;;;;9.65;3.03;;;;;;;;;;5073044;28;20089;-74
2023/10/04 03:30:32;;;;;;;10.65;3.10;;;;;;;;;;5056173;28;20040;-74
2023/10/04 03:32:58;;;;;;;12.23;2.83;;;;;;;;;;5073415;28;20122;-74
2023/10/04 03:35:26;;;;;;;8.50;2.92;;;;;;;;;;5072918;28;20056;-74
2023/10/04 03:37:58;;;;;;;12.45;2.58;;;;;;;;;;5073280;28;20040;-74
2023/10/04 03:40:38;;;;;;;12.27;2.65;;;18.80;99.90;;;;;;5073224;28;20063;-74
2023/10/04 03:43:06;;;;;;;11.25;3.42;;;18.60;99.90;;;;;;5056255;28;20507;-74
2023/10/04 03:45:32;;;;;;;15.18;2.88;;;19.10;99.90;;;;;;5073076;28;20032;-74
2023/10/04 03:47:59;;;;;;;12.48;2.25;;;18.60;99.90;;;;;;5056138;28;20048;-74
2023/10/04 03:50:25;;;;;;;8.90;2.22;;;18.90;99.90;;;;;;5072891;28;20040;-73
2023/10/04 03:52:52;;;;;;;14.60;2.85;;;18.50;99.90;;;;;;5072539;28;20046;-74
2023/10/04 03:55:18;;;;;;;18.70;3.35;;;18.60;99.90;;;;;;5071716;28;20045;-74
2023/10/04 03:57:44;;;;;;;14.73;2.55;;;19.00;99.90;;;;;;5073001;28;20041;-74
2023/10/04 04:00:17;;;;;;;14.65;2.90;;;18.70;99.90;;;;;;5055783;28;20048;-74
2023/10/04 04:02:43;;;;;;;13.68;2.58;;;;;;;;;;5056294;28;20150;-74
2023/10/04 04:05:14;;;;;;;13.55;3.65;;;;;;;;;;5055879;28;20474;-74
2023/10/04 04:07:42;;;;;;;12.07;2.58;;;18.50;99.90;;;;;;5072733;28;20054;-74
2023/10/04 04:10:14;;;;;;;14.93;3.45;;;18.50;99.90;;;;;;5072359;28;20040;-74
2023/10/04 04:12:40;;;;;;;11.00;2.10;;;;;;;;;;5056101;28;20389;-74
2023/10/04 04:15:08;;;;;;;12.82;3.38;;;18.20;99.90;;;;;;5072475;28;20044;-74
2023/10/04 04:17:35;;;;;;;11.50;2.75;;;18.70;99.90;;;;;;5072677;28;20036;-74
2023/10/04 04:20:07;;;;;;;10.48;2.45;;;18.40;99.90;;;;;;5072347;28;20400;-74
2023/10/04 04:22:33;;;;;;;11.93;2.67;;;18.50;99.90;;;;;;5072308;28;20036;-74
2023/10/04 04:25:00;;;;;;;8.00;2.55;;;18.80;99.90;;;;;;5056080;28;20051;-74
2023/10/04 04:27:27;;;;;;;8.95;3.45;;;18.80;99.90;;;;;;5072454;28;20037;-74
2023/10/04 04:29:53;;;;;;;10.13;2.47;;;18.80;99.90;;;;;;5072184;28;20127;-73
2023/10/04 04:32:26;;;;;;;8.50;2.47;;;18.60;99.90;;;;;;5071936;28;20125;-74
2023/10/04 04:34:55;;;;;;;18.27;3.80;;;18.80;99.90;;;;;;5071922;28;20075;-74
2023/10/04 04:37:23;;;;;;;14.68;3.08;;;18.90;99.90;;;;;;5071953;28;20036;-74
2023/10/04 04:39:49;;;;;;;13.85;3.05;;;18.80;99.90;;;;;;5071624;28;20097;-74
2023/10/04 04:42:20;;;;;;;11.32;2.75;;;18.50;99.90;;;;;;5072068;28;20396;-74
2023/10/04 04:44:46;;;;;;;15.30;2.85;;;18.30;99.90;;;;;;5070271;28;20036;-74
2023/10/04 04:47:12;;;;;;;13.48;2.92;;;18.60;99.90;;;;;;5054831;28;20032;-74
2023/10/04 04:49:38;;;;;;;11.43;2.42;;;18.30;99.90;;;;;;5071367;28;20127;-74
2023/10/04 04:52:06;;;;;;;10.57;3.45;;;18.30;99.90;;;;;;5071994;28;20401;-74
2023/10/04 04:54:33;;;;;;;12.68;2.80;;;18.70;99.90;;;;;;5072006;28;20044;-74
2023/10/04 04:56:59;;;;;;;12.00;3.45;;;18.70;99.90;;;;;;5071600;28;20048;-74
2023/10/04 04:59:24;;;;;;;9.20;2.50;;;18.30;99.90;;;;;;5071269;28;20037;-74
2023/10/04 05:01:53;;;;;;;8.38;2.40;;;17.90;99.90;;;;;;5071046;28;20511;-74
2023/10/04 05:04:22;;;;;;;16.45;2.80;;;18.70;99.90;;;;;;5071574;28;20079;-74
2023/10/04 05:06:48;;;;;;;8.27;2.30;;;18.40;99.90;;;;;;5071381;28;20439;-74
2023/10/04 05:09:16;;;;;;;10.10;2.80;;;18.50;99.90;;;;;;5070868;28;20043;-74
2023/10/04 05:11:42;;;;;;;11.05;2.47;;;18.10;99.90;;;;;;5070863;28;20116;-74
2023/10/04 05:14:10;;;;;;;10.18;2.83;;;;;;;;;;5071036;28;20167;-74
2023/10/04 05:16:35;;;;;;;19.70;2.85;;;18.50;99.90;;;;;;5070907;28;20048;-74
2023/10/04 05:19:03;;;;;;;13.57;2.75;;;18.40;99.90;;;;;;5071021;28;20127;-74
2023/10/04 05:21:30;;;;;;;13.50;3.60;;;18.30;99.90;;;;;;5070790;28;20411;-74
2023/10/04 05:23:56;;;;;;;9.77;3.10;;;;;;;;;;5053958;28;20476;-74
2023/10/04 05:26:22;;;;;;;11.20;2.75;;;;;;;;;;5070879;28;20508;-74
2023/10/04 05:28:48;;;;;;;11.05;2.83;;;18.70;99.90;;;;;;5070785;28;20051;-74
2023/10/04 05:31:13;;;;;;;13.68;3.55;;;18.20;99.90;;;;;;5054139;28;20385;-74
2023/10/04 05:33:39;;;;;;;9.98;2.78;;;18.40;99.90;;;;;;5070971;28;20455;-74
2023/10/04 05:36:06;;;;;;;8.40;3.03;;;18.70;99.90;;;;;;5054078;28;20094;-74
2023/10/04 05:38:32;;;;;;;8.73;3.38;;;18.40;99.90;;;;;;5070527;28;20166;-74
2023/10/04 05:41:00;;;;;;;10.40;2.92;;;18.30;99.90;;;;;;5070403;28;20041;-74
2023/10/04 05:43:28;;;;;;;10.95;3.40;;;;;;;;;;5070718;28;20060;-74
2023/10/04 05:45:54;;;;;;;11.70;3.00;;;18.50;99.90;;;;;;5070632;28;20086;-74
2023/10/04 05:48:20;;;;;;;18.67;3.47;;;18.80;99.90;;;;;;5087557;28;20122;-73
2023/10/04 05:50:49;;;;;;;14.07;3.17;;;;;;;;;;5072344;28;20043;-74
2023/10/04 05:53:19;;;;;;;13.73;4.38;;;18.50;99.90;;;;;;5086376;28;20067;-75
2023/10/04 05:55:46;;;;;;;19.63;4.65;;;;;;;;;;5056620;28;20059;-73
2023/10/04 05:58:13;;;;;;;13.07;3.72;;;;;;;;;;5052052;28;20118;-74
2023/10/04 06:00:42;;;;;;;15.57;4.32;;;18.50;99.90;;;;;;5073700;28;20036;-74
2023/10/04 06:03:15;;;;;;;17.65;3.83;;;18.90;99.90;;;;;;5075031;28;20536;-74
2023/10/04 06:05:42;;;;;;;11.27;3.63;;;19.00;99.90;;;;;;5050572;28;20075;-74
2023/10/04 06:08:18;;;;;;;10.20;3.35;;;18.50;99.90;;;;;;5074927;28;20040;-74
2023/10/04 06:10:44;;;;;;;12.02;3.63;;;;;;;;;;5083161;28;20551;-74
2023/10/04 06:13:13;;;;;;;13.70;4.97;;;18.60;99.90;;;;;;5066428;28;20135;-74
2023/10/04 06:15:47;;;;;;;13.90;4.60;;;18.90;99.90;;;;;;5081986;28;20048;-74
2023/10/04 06:18:13;;;;;;;18.00;4.05;;;;;;;;;;5085652;28;20115;-74
2023/10/04 06:20:40;;;;;;;13.63;3.83;;;18.90;99.90;;;;;;5081935;28;20407;-74
2023/10/04 06:23:09;;;;;;;10.90;3.58;;;19.00;99.90;;;;;;5074141;28;20036;-74
2023/10/04 06:25:44;;;;;;;13.68;5.03;;;18.90;99.90;;;;;;5085826;28;20036;-74
2023/10/04 06:28:10;;;;;;;18.20;4.68;;;;;;;;;;5086918;28;20052;-74
2023/10/04 06:30:36;;;;;;;15.88;3.70;;;18.80;99.90;;;;;;5080968;28;20048;-73
2023/10/04 06:33:04;;;;;;;13.38;3.67;;;18.80;99.90;;;;;;5068126;28;20032;-74
2023/10/04 06:35:32;;;;;;;22.17;5.05;;;18.90;99.90;;;;;;5081718;28;20066;-73
2023/10/04 06:38:06;;;;;;;12.80;3.47;;;18.90;99.90;;;;;;5080517;28;20151;-74
2023/10/04 06:40:32;;;;;;;18.70;4.65;;;;;;;;;;5089587;28;20036;-75
2023/10/04 06:43:00;;;;;;;13.00;4.05;;;18.80;99.90;;;;;;5090363;28;20062;-75
2023/10/04 06:45:27;;;;;;;18.73;3.95;;;19.40;99.90;;;;;;5090719;28;20070;-75
2023/10/04 06:47:55;;;;;;;11.40;3.30;;;18.90;99.90;;;;;;5090059;28;20414;-75
2023/10/04 06:50:22;;;;;;;13.85;4.10;;;19.00;99.90;;;;;;5089764;28;20048;-73
2023/10/04 06:52:49;;;;;;;14.95;3.67;;;18.80;99.90;;;;;;5090028;28;20051;-73
2023/10/04 06:55:17;;;;;;;13.25;4.28;;;18.70;99.90;;;;;;5073173;28;20036;-73
2023/10/04 06:57:44;;;;;;;10.70;3.53;;;19.40;99.90;;;;;;5090048;28;20036;-74
2023/10/04 07:00:14;;;;;;;12.50;3.60;;;18.90;99.90;;;;;;5072960;28;20047;-73
2023/10/04 07:02:59;;;;;;;11.77;4.30;;;19.30;99.90;;;;;;5090248;28;20070;-74
2023/10/04 07:05:29;;;;;;;15.27;4.15;;;19.30;99.90;;;;;;5089606;28;20044;-73
2023/10/04 07:07:58;;;;;;;14.40;3.85;;;19.60;99.90;;;;;;5089905;28;20035;-74
2023/10/04 07:10:26;;;;;;;13.70;4.07;;;19.50;99.90;;;;;;5089617;28;20496;-74
2023/10/04 07:12:52;;;;;;;15.90;4.00;;;;;;;;;;5073250;28;20491;-74
2023/10/04 07:15:19;;;;;;;14.43;3.92;;;19.40;99.90;;;;;;5073269;28;20097;-75
2023/10/04 07:17:45;;;;;;;16.02;4.25;;;19.40;99.90;;;;;;5072955;28;20088;-74
2023/10/04 07:20:15;;;;;;;16.08;3.95;;;19.80;99.90;;;;;;5089921;28;20032;-74
2023/10/04 07:22:47;;;;;;;13.40;3.78;;;20.00;99.90;;;;;;5090061;28;20047;-74
2023/10/04 07:25:14;;;;;;;14.27;4.50;;;19.60;99.90;;;;;;5089646;28;20040;-74
2023/10/04 07:27:43;;;;;;;13.63;4.43;;;19.80;99.90;;;;;;5089259;28;20044;-73
2023/10/04 07:30:13;;;;;;;17.90;4.50;;;20.20;99.90;;;;;;5072796;28;20040;-73
2023/10/04 07:32:44;;;;;;;18.48;4.38;;;19.70;99.90;;;;;;5076361;28;20122;-73
2023/10/04 07:35:21;;;;;;;15.90;5.40;;;19.80;99.90;;;;;;5093093;28;20051;-73
2023/10/04 07:37:47;;;;;;;11.35;4.10;;;20.40;99.90;;;;;;5092222;28;20028;-74
2023/10/04 07:40:15;;;;;;;12.50;4.03;;;19.80;99.90;;;;;;5092669;28;20032;-74
2023/10/04 07:42:45;;;;;;;17.48;4.63;;;20.60;99.90;;;;;;5075049;28;20055;-74
2023/10/04 07:45:12;;;;;;;13.13;3.63;;;19.90;99.90;;;;;;5090415;28;20483;-74
2023/10/04 07:47:41;;;;;;;15.73;4.05;;;20.00;99.90;;;;;;5092651;28;20127;-74
2023/10/04 07:50:15;;;;;;;12.35;4.35;;;19.90;99.90;;;;;;5092136;28;20036;-74
2023/10/04 07:52:44;;;;;;;13.02;3.55;;;20.40;99.90;;;;;;5092802;28;20127;-74
2023/10/04 07:55:17;;;;;;;15.00;4.20;;;20.60;99.90;;;;;;5089768;28;20046;-74
2023/10/04 07:57:52;;;;;;;16.38;5.10;;;20.80;99.90;;;;;;5092510;28;20039;-74
2023/10/04 08:00:20;;;;;;;16.60;4.00;;;20.70;99.90;;;;;;5088159;28;20047;-74
2023/10/04 08:02:52;;;;;;;10.73;3.83;;;20.50;99.90;;;;;;5092322;28;20040;-74
2023/10/04 08:05:26;;;;;;;15.30;4.20;;;20.30;99.90;;;;;;5092682;28;20040;-74
2023/10/04 08:07:54;;;;;;;16.23;4.82;;;20.10;99.90;;;;;;5092809;28;20113;-74
2023/10/04 08:10:25;;;;;;;11.05;3.83;;;20.40;99.90;;;;;;5092382;28;20515;-74
2023/10/04 08:12:55;;;;;;;15.38;3.90;;;20.10;99.90;;;;;;5075634;28;20051;-74
2023/10/04 08:15:25;;;;;;;10.98;3.58;;;20.50;99.90;;;;;;5092518;28;20135;-74
2023/10/04 08:17:52;;;;;;;11.75;3.65;;;20.90;99.90;;;;;;5074885;28;20509;-74
2023/10/04 08:20:21;;;;;;;12.27;4.25;;;21.00;99.90;;;;;;5055245;28;20033;-74
2023/10/04 08:22:47;;;;;;;13.15;4.10;;;21.00;99.90;;;;;;5072363;28;20124;-74
2023/10/04 08:25:17;;;;;;;12.85;3.78;;;21.20;99.90;;;;;;5072048;28;20123;-74
2023/10/04 08:27:47;;;;;;;15.70;4.00;;;21.40;99.90;;;;;;5071827;28;20036;-74
2023/10/04 08:30:14;;;;;;;23.92;5.40;;;21.10;99.90;;;;;;5071741;28;20041;-74
2023/10/04 08:32:41;;;;;;;14.35;4.55;;;21.50;99.90;;;;;;5071946;28;20036;-74
2023/10/04 08:35:33;;;;;;;16.73;4.47;;;21.60;99.90;;;;;;5071799;28;20086;-74
2023/10/04 08:38:00;;;;;;;13.18;4.85;;;21.30;99.90;;;;;;5055460;28;20036;-74
2023/10/04 08:40:27;;;;;;;10.88;4.03;;;21.60;99.90;;;;;;5071585;28;20098;-73
2023/10/04 08:42:53;;;;;;;15.68;4.82;;;;;;;;;;5071622;28;20033;-74
2023/10/04 08:45:20;;;;;;;11.90;3.90;;;21.50;99.90;;;;;;5073911;28;20565;-74
2023/10/04 08:47:56;;;;;;;12.27;3.95;;;21.50;99.90;;;;;;5091797;28;20507;-73
2023/10/04 08:50:51;;;;;;;10.73;3.42;;;21.80;99.90;;;;;;5091909;28;20036;-75
2023/10/04 08:53:45;;;;;;;18.45;4.00;;;21.30;99.90;;;;;;5053729;28;20070;-75
2023/10/04 08:56:15;;;;;;;13.88;4.38;;;21.60;99.90;;;;;;5059305;28;20053;-76
2023/10/04 08:58:43;;;;;;;12.48;3.90;;;21.40;99.90;;;;;;5070941;28;20087;-75
2023/10/04 09:01:11;;;;;;;14.18;4.03;;;21.70;99.90;;;;;;5071084;28;20128;-75
2023/10/04 09:03:40;;;;;;;15.57;4.38;;;21.80;99.90;;;;;;5071267;28;20037;-75
2023/10/04 09:06:11;;;;;;;15.73;4.60;;;21.60;99.90;;;;;;5071301;28;20044;-75
2023/10/04 09:08:41;;;;;;;15.43;4.18;;;21.60;99.90;;;;;;5071239;28;20079;-75
2023/10/04 09:11:15;;;;;;;15.45;4.35;;;22.00;99.90;;;;;;5054624;28;20131;-75
2023/10/04 09:13:46;;;;;;;16.08;3.58;;;22.00;99.90;;;;;;5071040;28;20064;-75
2023/10/04 09:16:29;;;;;;;12.50;4.18;;;22.20;99.90;;;;;;5054492;28;20480;-76
2023/10/04 09:19:18;;;;;;;12.82;4.10;;;22.10;99.90;;;;;;5071235;28;20040;-75
2023/10/04 09:21:44;;;;;;;13.82;5.15;;;22.20;99.90;;;;;;5070977;28;20118;-76
2023/10/04 09:24:14;;;;;;;10.35;4.22;;;22.40;99.90;;;;;;5071639;28;20036;-78
2023/10/04 09:26:54;;;;;;;12.10;4.75;;;22.10;99.90;;;;;;5071312;28;20086;-77
2023/10/04 09:29:30;;;;;;;13.70;3.75;;;22.30;99.90;;;;;;5071404;28;20110;-76
2023/10/04 09:31:56;;;;;;;16.00;4.38;;;22.30;99.90;;;;;;5071439;28;20051;-76
2023/10/04 09:34:25;;;;;;;10.40;4.45;;;22.40;99.90;;;;;;5070469;28;20033;-77
2023/10/04 09:36:52;;;;;;;9.75;4.53;;;22.30;99.90;;;;;;5071311;28;20036;-77
2023/10/04 09:39:24;;;;;;;14.27;4.25;;;22.30;99.90;;;;;;5071209;28;20040;-78
2023/10/04 09:41:54;;;;;;;16.02;4.40;;;22.40;99.90;;;;;;5083674;28;20036;-77
2023/10/04 09:44:27;;;;;;;12.48;4.28;;;22.50;99.90;;;;;;5091581;28;20043;-77
2023/10/04 09:46:57;;;;;;;;;;;22.40;99.90;;;;;;5091820;28;20090;-77
2023/10/04 09:49:25;;;;;;;13.32;3.83;;;22.40;99.90;;;;;;5074493;28;20426;-77
2023/10/04 09:51:53;;;;;;;14.07;4.68;;;22.60;99.90;;;;;;5091117;28;20124;-77
2023/10/04 09:54:19;;;;;;;14.25;4.18;;;22.70;99.90;;;;;;5087551;28;20103;-74
2023/10/04 09:56:49;;;;;;;15.43;4.20;;;22.40;99.90;;;;;;5072027;28;20036;-76
2023/10/04 09:59:19;;;;;;;19.05;5.68;;;22.50;99.90;;;;;;5090472;28;20047;-77
2023/10/04 10:01:59;;;;;;;17.08;5.53;;;22.30;99.90;;;;;;5090921;28;20075;-76
2023/10/04 10:04:29;;;;;;;13.20;4.40;;;22.80;99.90;;;;;;5090312;28;20111;-77
2023/10/04 10:07:09;;;;;;;9.40;4.07;;;22.30;99.90;;;;;;5073494;28;20036;-76
2023/10/04 10:09:48;;;;;;;14.15;4.57;;;22.60;99.90;;;;;;5071178;28;20036;-77
2023/10/04 10:12:15;;;;;;;11.05;4.07;;;22.40;99.90;;;;;;5074123;28;20044;-76
2023/10/04 10:14:42;;;;;;;14.68;5.13;;;22.50;99.90;;;;;;5091710;28;20050;-77
2023/10/04 10:17:10;;;;;;;11.00;4.45;;;;;;;;;;5102486;28;20560;-77
2023/10/04 10:19:36;;;;;;;12.13;4.40;;;22.70;99.90;;;;;;5096139;28;20047;-76
2023/10/04 10:22:15;;;;;;;17.88;4.43;;;22.50;99.90;;;;;;5100780;28;20408;-77
2023/10/04 10:24:51;;;;;;;9.77;4.07;;;22.60;99.90;;;;;;5081241;28;20518;-76
2023/10/04 10:27:19;;;;;;;11.20;4.85;;;22.70;99.90;;;;;;5073951;28;20036;-76
2023/10/04 10:29:47;;;;;;;14.40;4.70;;;22.50;99.90;;;;;;5080327;28;20033;-78
2023/10/04 10:32:20;;;;;;;15.50;4.90;;;22.60;99.90;;;;;;5070452;28;20034;-78
2023/10/04 10:34:51;;;;;;;10.73;4.25;;;22.40;99.90;;;;;;5072550;28;20046;-77
2023/10/04 10:37:17;;;;;;;14.52;3.92;;;;;;;;;;5090605;28;20036;-77
2023/10/04 10:39:45;;;;;;;17.63;5.00;;;22.70;99.90;;;;;;5079721;28;20047;-78
2023/10/04 10:42:12;;;;;;;9.80;4.65;;;22.70;99.90;;;;;;5066678;28;20398;-77
2023/10/04 10:44:39;;;;;;;17.02;4.43;;;22.50;99.90;;;;;;5074809;28;20044;-77
2023/10/04 10:47:14;;;;;;;16.02;4.00;;;22.40;99.90;;;;;;5056100;28;20085;-77
2023/10/04 10:49:59;;;;;;;15.50;4.70;;;22.40;99.90;;;;;;5085492;28;20063;-76
2023/10/04 10:52:38;;;;;;;14.18;4.18;;;22.70;99.90;;;;;;5085319;28;20515;-78
2023/10/04 10:55:14;;;;;;;17.38;5.38;;;22.70;99.90;;;;;;5066342;28;20043;-77
2023/10/04 10:57:42;;;;;;;15.02;4.53;;;22.70;99.90;;;;;;5070642;28;20276;-77
2023/10/04 11:02:42;;;;;;;15.88;5.28;;;22.50;99.90;;;;;;5079600;28;20052;-77
2023/10/04 11:05:09;;;;;;;18.00;5.25;;;22.60;99.90;;;;;;5065837;28;20047;-77
2023/10/04 11:07:37;;;;;;;9.80;4.38;;;22.40;99.90;;;;;;5082322;28;20051;-77
2023/10/04 11:10:05;;;;;;;13.95;5.38;;;22.50;99.90;;;;;;5066581;28;20075;-77
2023/10/04 11:12:37;;;;;;;12.38;3.90;;;22.50;99.90;;;;;;5081905;28;20036;-77
2023/10/04 11:15:04;;;;;;;16.65;4.78;;;22.70;99.90;;;;;;5072249;28;20049;-78
2023/10/04 11:17:30;;;;;;;10.27;4.18;;;22.70;99.90;;;;;;5092413;28;20499;-77
2023/10/04 11:19:56;;;;;;;14.80;5.18;;;22.70;99.90;;;;;;5093248;28;20039;-76
2023/10/04 11:22:23;;;;;;;14.73;4.78;;;22.70;99.90;;;;;;5076886;28;20521;-77
2023/10/04 11:24:50;;;;;;;12.13;4.15;;;22.80;99.90;;;;;;5094360;28;20028;-77
2023/10/04 11:27:22;;;;;;;21.52;4.95;;;22.70;99.90;;;;;;5093231;28;20043;-77
2023/10/04 11:29:49;;;;;;;13.40;4.57;;;22.90;99.90;;;;;;5093083;28;20068;-77
2023/10/04 11:32:15;;;;;;;14.18;4.68;;;23.00;99.90;;;;;;5092612;28;20040;-77
2023/10/04 11:34:43;;;;;;;19.23;4.97;;;22.60;99.90;;;;;;5067069;28;20043;-76
2023/10/04 11:37:09;;;;;;;12.23;3.83;;;22.80;99.90;;;;;;5072713;28;20044;-77
2023/10/04 11:39:39;;;;;;;14.88;5.40;;;23.00;99.90;;;;;;5072757;28;20032;-77
2023/10/04 11:42:17;;;;;;;17.17;4.50;;;22.80;99.90;;;;;;5072300;28;20041;-76
2023/10/04 11:44:43;;;;;;;12.18;3.85;;;22.80;99.90;;;;;;5056305;28;20036;-77
2023/10/04 11:47:09;;;;;;;9.75;4.03;;;22.80;99.90;;;;;;5073065;28;20083;-77
2023/10/04 11:49:36;;;;;;;11.55;3.75;;;22.60;99.90;;;;;;5072654;28;20079;-76
2023/10/04 11:52:06;;;;;;;10.38;3.53;;;23.00;99.90;;;;;;5078997;28;20148;-77
2023/10/04 11:54:40;;;;;;;17.35;4.05;;;23.30;99.90;;;;;;5091176;28;20119;-77
2023/10/04 11:57:06;;;;;;;10.13;4.05;;;23.00;99.90;;;;;;5056069;28;20066;-77
2023/10/04 11:59:32;;;;;;;11.38;3.25;;;23.00;99.90;;;;;;5055895;28;20446;-76
2023/10/04 12:02:00;;;;;;;8.98;3.45;;;22.90;99.90;;;;;;5073635;28;20127;-77
2023/10/04 12:04:25;;;;;;;10.30;2.65;;;22.90;99.90;;;;;;5075304;28;20048;-77
2023/10/04 12:07:02;;;;;;;16.60;3.75;;;22.80;99.90;;;;;;5073913;28;20037;-77
2023/10/04 12:09:31;;;;;;;13.63;4.13;;;22.90;99.90;;;;;;5073633;28;20052;-77
2023/10/04 12:11:57;;;;;;;10.02;2.85;;;23.00;99.90;;;;;;5055375;28;20040;-77
2023/10/04 12:14:23;;;;;;;9.38;3.00;;;23.00;99.90;;;;;;5072734;28;20462;-76
2023/10/04 12:16:49;;;;;;;9.57;2.80;;;23.00;99.90;;;;;;5081850;28;20136;-77
2023/10/04 12:19:15;;;;;;;10.20;2.65;;;23.20;99.90;;;;;;5075318;28;20032;-77
2023/10/04 12:21:41;;;;;;;15.27;3.92;;;22.90;99.90;;;;;;5089197;28;20514;-77
2023/10/04 12:24:09;;;;;;;11.57;3.00;;;23.10;99.90;;;;;;5092306;28;20107;-78
2023/10/04 12:26:35;;;;;;;9.07;3.10;;;23.10;99.90;;;;;;5092886;28;20048;-76
2023/10/04 12:29:02;;;;;;;8.52;3.13;;;23.30;99.90;;;;;;5094632;28;20055;-77
2023/10/04 12:31:28;;;;;;;11.55;2.70;;;23.20;99.90;;;;;;5092848;28;20411;-77
2023/10/04 12:33:55;;;;;;;9.82;2.65;;;22.90;99.90;;;;;;5095419;28;20044;-77
2023/10/04 12:36:22;;;;;;;11.85;3.10;;;23.00;99.90;;;;;;5077005;28;20040;-77
2023/10/04 12:38:48;;;;;;;9.65;2.20;;;23.10;99.90;;;;;;5094114;28;20032;-77
2023/10/04 12:41:15;;;;;;;10.50;2.63;;;23.10;99.90;;;;;;5076703;28;20046;-77
2023/10/04 12:43:41;;;;;;;7.65;2.75;;;23.20;99.90;;;;;;5093047;28;20044;-77
2023/10/04 12:46:06;;;;;;;10.10;2.40;;;23.30;99.90;;;;;;5095491;28;20089;-77
2023/10/04 12:48:32;;;;;;;8.27;2.53;;;23.00;99.90;;;;;;5076886;28;20130;-77
2023/10/04 12:50:58;;;;;;;8.98;2.40;;;23.40;99.90;;;;;;5075171;28;20519;-77
2023/10/04 12:53:23;;;;;;;10.57;2.33;;;23.30;99.90;;;;;;5076023;28;20457;-77
2023/10/04 12:55:52;;;;;;;8.40;2.75;;;23.60;99.90;;;;;;5079769;28;20033;-78
2023/10/04 12:58:20;;;;;;;6.88;2.15;;;23.30;99.90;;;;;;5072318;28;20037;-77
2023/10/04 13:00:51;;;;;;;11.43;2.50;;;23.30;99.90;;;;;;5055157;28;20169;-77
2023/10/04 13:03:17;;;;;;;10.35;2.75;;;23.50;99.90;;;;;;5072191;28;20032;-77
2023/10/04 13:05:43;;;;;;;10.13;2.85;;;23.10;99.90;;;;;;5055751;28;20036;-77